Terminal Aerodrome Forecast
Issued by NWS New Orleans/Baton Rouge, LA

Home | Current Version | Previous Version | Text Only | Print | Product List | Glossary On
Versions: 1 2 3 4 5 6 7 8 9 10 11 12
061
FTUS44 KLIX 301743
TAFBTR
TAF
KBTR 301743Z 3018/3118 27004KT P6SM SCT050 BKN120
      TEMPO 3019/3023 VRB15G25KT 2SM TSRA BKN025CB BKN050
     FM302300 21005KT P6SM BKN060 BKN090
     FM310300 21004KT P6SM FEW090 SCT150
     FM310800 00000KT P6SM FEW090 SCT150=

USA.gov is the U.S. government's official web portal to all federal, state and local government web resources and services.